Time;durP1;ratioP1;P1;durP2;ratioP2;P2;SDS_P1;SDS_P2;PMS_P1;PMS_P2;Temp;Humidity;BMP_temperature;BMP_pressure;BME280_temperature;BME280_humidity;BME280_pressure;Samples;Min_cycle;Max_cycle;Signal;HPM_P1;HPM_P2
2021/08/07 00:02:33;;;;;;;7.77;5.63;;;;;;;9.13;85.47;98046.29;2189525;81;20980;-80
2021/08/07 00:05:33;;;;;;;7.40;6.63;;;;;;;9.11;85.35;98053.22;2189341;81;20953;-80
2021/08/07 00:08:34;;;;;;;10.70;5.53;;;;;;;9.09;85.69;98050.61;2189341;81;20960;-79
2021/08/07 00:11:34;;;;;;;8.90;5.67;;;;;;;9.06;85.42;98047.13;2189488;81;21289;-80
2021/08/07 00:14:35;;;;;;;8.07;6.17;;;;;;;9.03;85.54;98044.07;2189354;81;20984;-80
2021/08/07 00:17:35;;;;;;;70.33;55.40;;;;;;;9.00;85.57;98044.05;2189824;81;20991;-81
2021/08/07 00:20:36;;;;;;;87.90;71.97;;;;;;;9.71;95.68;98038.28;2189884;81;21010;-80
2021/08/07 00:23:36;;;;;;;23.03;19.60;;;;;;;11.22;99.69;98039.99;2189065;81;21008;-80
2021/08/07 00:26:37;;;;;;;14.00;10.20;;;;;;;11.00;86.56;98044.41;2189530;81;20971;-80
2021/08/07 00:29:37;;;;;;;12.50;7.80;;;;;;;10.51;84.51;98049.28;2189643;81;21345;-79
2021/08/07 00:32:38;;;;;;;13.77;6.40;;;;;;;10.15;84.00;98052.69;2189533;81;20955;-80
2021/08/07 00:35:38;;;;;;;8.20;5.57;;;;;;;9.90;83.95;98053.09;2189371;81;20956;-80
2021/08/07 00:38:38;;;;;;;8.77;6.03;;;;;;;9.68;83.86;98054.34;2189526;81;20955;-80
2021/08/07 00:41:39;;;;;;;15.10;6.70;;;;;;;9.48;84.06;98060.33;2189605;81;21368;-80
2021/08/07 00:44:39;;;;;;;18.00;6.53;;;;;;;9.36;84.27;98060.28;2189457;81;20925;-80
2021/08/07 00:47:40;;;;;;;16.87;6.03;;;;;;;9.26;84.45;98061.98;2189642;81;20955;-80
2021/08/07 00:50:41;;;;;;;10.70;6.37;;;;;;;9.17;84.51;98058.45;2189616;81;20983;-81
2021/08/07 00:53:41;;;;;;;8.20;5.80;;;;;;;9.09;84.56;98058.85;2189132;81;21043;-79
2021/08/07 00:56:42;;;;;;;9.40;5.53;;;;;;;9.04;84.77;98056.66;2189488;81;20944;-80
2021/08/07 00:59:42;;;;;;;58.57;48.33;;;;;;;8.97;84.84;98052.28;2189382;81;20992;-80
2021/08/07 01:02:43;;;;;;;29.63;12.93;;;;;;;8.93;85.10;98058.77;2189416;81;20976;-80
2021/08/07 01:05:43;;;;;;;14.90;7.07;;;;;;;8.91;85.18;98060.92;2189517;81;21324;-80
2021/08/07 01:08:44;;;;;;;11.93;6.23;;;;;;;8.88;85.21;98065.68;2189538;81;21281;-80
2021/08/07 01:11:44;;;;;;;13.90;6.70;;;;;;;8.84;84.86;98070.42;2189917;81;21003;-81
2021/08/07 01:14:45;;;;;;;12.37;6.23;;;;;;;8.77;84.77;98069.95;2189470;81;20999;-81
2021/08/07 01:17:45;;;;;;;12.07;6.40;;;;;;;8.71;84.92;98076.41;2189654;81;20936;-80
2021/08/07 01:20:46;;;;;;;7.87;6.30;;;;;;;8.67;85.14;98075.95;2189518;81;21022;-80
2021/08/07 01:23:46;;;;;;;11.87;6.30;;;;;;;8.63;85.26;98072.42;2188925;81;21704;-80
2021/08/07 01:26:47;;;;;;;15.80;6.60;;;;;;;8.63;85.42;98076.33;2189147;81;20975;-80
2021/08/07 01:29:48;;;;;;;9.77;6.67;;;;;;;8.60;85.54;98071.10;2189278;81;20936;-80
2021/08/07 01:32:48;;;;;;;9.83;6.33;;;;;;;8.58;85.62;98074.13;2189386;81;21280;-80
2021/08/07 01:35:49;;;;;;;9.80;7.00;;;;;;;8.56;85.67;98074.97;2189426;81;20996;-80
2021/08/07 01:38:49;;;;;;;12.83;6.50;;;;;;;8.55;85.62;98078.00;2189482;81;21340;-80
2021/08/07 01:41:50;;;;;;;12.67;6.50;;;;;;;8.54;85.70;98077.98;2189394;81;21391;-81
2021/08/07 01:44:50;;;;;;;9.87;6.17;;;;;;;8.53;85.75;98077.55;2189562;81;20992;-80
2021/08/07 01:47:51;;;;;;;9.13;5.67;;;;;;;8.50;85.74;98072.32;2189532;81;20984;-81
2021/08/07 01:50:51;;;;;;;10.47;5.90;;;;;;;8.46;85.55;98076.62;2189465;81;21294;-81
2021/08/07 01:53:52;;;;;;;8.03;5.67;;;;;;;8.40;85.26;98073.11;2189391;81;21487;-80
2021/08/07 01:56:53;;;;;;;10.93;5.87;;;;;;;8.35;85.32;98082.17;2189519;81;20984;-80
2021/08/07 01:59:53;;;;;;;9.77;5.90;;;;;;;8.33;85.29;98079.08;2189319;81;20960;-80
2021/08/07 02:02:53;;;;;;;11.83;5.80;;;;;;;8.27;85.43;98081.20;2189345;81;20944;-81
2021/08/07 02:05:54;;;;;;;13.10;5.40;;;;;;;8.25;85.37;98077.29;2189474;81;21360;-81
2021/08/07 02:08:54;;;;;;;17.57;6.03;;;;;;;8.20;85.31;98069.88;2189486;81;20964;-81
2021/08/07 02:11:55;;;;;;;6.87;5.13;;;;;;;8.14;85.37;98067.23;2189670;81;20960;-80
2021/08/07 02:14:55;;;;;;;9.90;5.50;;;;;;;8.09;85.52;98068.91;2189437;81;20999;-82
2021/08/07 02:17:56;;;;;;;7.67;5.43;;;;;;;8.09;85.66;98076.70;2189151;81;20960;-81
2021/08/07 02:20:56;;;;;;;8.00;5.13;;;;;;;8.07;85.52;98078.42;2189366;81;21444;-80
2021/08/07 02:23:57;;;;;;;11.77;5.30;;;;;;;8.04;85.43;98077.09;2189014;81;21036;-81
2021/08/07 02:26:57;;;;;;;8.00;6.03;;;;;;;8.03;85.48;98084.88;2189482;81;20961;-81
2021/08/07 02:29:58;;;;;;;6.93;5.20;;;;;;;8.03;85.57;98079.68;2189256;81;20924;-80
2021/08/07 02:32:58;;;;;;;7.50;5.63;;;;;;;8.00;85.63;98071.42;2189352;81;20913;-80
2021/08/07 02:35:59;;;;;;;6.63;4.93;;;;;;;8.02;85.63;98085.30;2189626;81;20947;-80
2021/08/07 02:38:59;;;;;;;8.33;4.77;;;;;;;8.02;85.78;98086.61;2189402;81;21420;-79
2021/08/07 02:42:00;;;;;;;7.93;4.63;;;;;;;8.04;85.62;98093.12;2189539;81;21008;-80
2021/08/07 02:45:01;;;;;;;5.67;4.70;;;;;;;8.04;85.54;98095.29;2189942;81;20971;-80
2021/08/07 02:48:01;;;;;;;7.87;4.93;;;;;;;8.03;85.43;98095.27;2189728;81;20944;-81
2021/08/07 02:51:01;;;;;;;7.20;4.83;;;;;;;8.01;85.46;98092.66;2189588;81;20984;-79
2021/08/07 02:54:02;;;;;;;5.70;4.53;;;;;;;7.99;85.53;98095.67;2189339;81;20976;-80
2021/08/07 02:57:03;;;;;;;20.10;5.03;;;;;;;7.98;85.57;98101.30;2189545;81;21331;-81
2021/08/07 03:00:03;;;;;;;362.77;19.80;;;;;;;7.98;85.42;98109.52;2189970;81;20980;-81
2021/08/07 03:03:04;;;;;;;7.67;4.50;;;;;;;7.97;85.65;98103.45;2189682;81;20960;-81
2021/08/07 03:06:04;;;;;;;19.60;16.37;;;;;;;7.96;85.41;98107.34;2189613;81;20913;-81
2021/08/07 03:09:05;;;;;;;17.47;11.83;;;;;;;7.92;85.29;98104.27;2189715;81;20972;-80
2021/08/07 03:12:05;;;;;;;7.13;4.70;;;;;;;7.90;85.24;98103.37;2189603;81;20929;-80
2021/08/07 03:15:05;;;;;;;36.23;6.90;;;;;;;7.90;85.24;98104.67;2189754;81;20990;-81
2021/08/07 03:18:06;;;;;;;6.63;5.13;;;;;;;7.89;85.43;98109.00;2189878;81;21380;-81
2021/08/07 03:21:06;;;;;;;9.53;4.30;;;;;;;7.91;85.18;98104.69;2189626;81;21011;-80
2021/08/07 03:24:08;;;;;;;7.67;4.43;;;;;;;7.89;85.02;98106.83;2189311;81;21039;-82
2021/08/07 03:27:09;;;;;;;7.90;4.57;;;;;;;7.89;85.00;98115.92;2189824;81;20983;-81
2021/08/07 03:30:09;;;;;;;5.47;4.97;;;;;;;7.89;85.06;98113.33;2189568;81;21263;-79
2021/08/07 03:33:10;;;;;;;5.80;4.57;;;;;;;7.92;84.99;98114.23;2189740;81;21019;-81
2021/08/07 03:36:10;;;;;;;6.70;4.57;;;;;;;7.93;84.91;98112.08;2189613;81;20967;-80
2021/08/07 03:39:11;;;;;;;6.13;4.50;;;;;;;7.93;84.85;98109.90;2189719;81;21367;-80
2021/08/07 03:42:11;;;;;;;6.53;4.13;;;;;;;7.95;85.10;98109.06;2189584;81;21372;-81
2021/08/07 03:45:12;;;;;;;8.37;4.43;;;;;;;8.02;84.90;98113.02;2189703;81;21025;-79
2021/08/07 03:48:12;;;;;;;6.80;4.27;;;;;;;8.07;84.98;98113.94;2189698;81;21052;-80
2021/08/07 03:51:13;;;;;;;6.07;4.70;;;;;;;8.11;85.00;98110.09;2190015;81;21303;-80
2021/08/07 03:54:13;;;;;;;8.20;4.33;;;;;;;8.18;85.07;98110.59;2189030;81;21011;-80
2021/08/07 03:57:14;;;;;;;9.10;4.27;;;;;;;8.24;84.98;98113.67;2189545;81;20952;-80
2021/08/07 04:00:14;;;;;;;9.07;3.87;;;;;;;8.35;85.28;98119.88;2189828;81;21067;-80
2021/08/07 04:03:15;;;;;;;6.37;4.30;;;;;;;8.44;84.93;98116.05;2189797;81;20968;-80
2021/08/07 04:06:15;;;;;;;11.00;4.30;;;;;;;8.49;84.78;98114.37;2189078;81;20968;-80
2021/08/07 04:09:16;;;;;;;4.30;3.90;;;;;;;8.58;84.76;98117.04;2189287;81;21352;-80
2021/08/07 04:12:16;;;;;;;5.37;4.20;;;;;;;8.67;84.81;98117.58;2189954;81;20944;-81
2021/08/07 04:15:17;;;;;;;9.53;6.30;;;;;;;8.76;84.77;98111.57;2189502;81;20976;-80
2021/08/07 04:18:17;;;;;;;7.53;5.00;;;;;;;8.85;84.81;98116.41;2188617;81;20987;-80
2021/08/07 04:21:18;;;;;;;7.10;3.83;;;;;;;8.95;84.88;98114.73;2188566;81;21011;-80
2021/08/07 04:24:18;;;;;;;7.57;4.10;;;;;;;9.09;84.85;98113.09;2175871;81;21048;-81
2021/08/07 04:27:20;;;;;;;9.07;3.97;;;;;;;9.23;84.64;98107.97;2172805;81;21373;-80
2021/08/07 04:30:20;;;;;;;7.30;3.77;;;;;;;9.38;84.79;98114.55;2172283;81;21007;-80
2021/08/07 04:33:21;;;;;;;6.87;3.97;;;;;;;9.52;84.93;98110.27;2171623;82;20976;-80
2021/08/07 04:36:21;;;;;;;5.57;4.40;;;;;;;9.71;85.16;98112.98;2171416;81;20953;-80
2021/08/07 04:39:22;;;;;;;8.57;3.70;;;;;;;9.92;85.37;98113.05;2171852;82;20972;-81
2021/08/07 04:42:23;;;;;;;9.93;4.50;;;;;;;10.10;85.03;98118.74;2172319;82;20976;-81
2021/08/07 04:45:23;;;;;;;5.70;3.87;;;;;;;10.28;85.35;98112.72;2172244;81;20984;-81
2021/08/07 04:48:24;;;;;;;5.83;4.13;;;;;;;10.55;85.46;98107.55;2173133;81;21317;-80
2021/08/07 04:51:24;;;;;;;9.33;4.63;;;;;;;10.84;85.46;98111.46;2173074;82;20968;-80
2021/08/07 04:54:25;;;;;;;10.43;4.42;;;;;;;11.13;85.38;98108.80;2172655;81;20984;-79
2021/08/07 04:57:25;;;;;;;6.22;4.03;;;;;;;11.38;85.19;98109.20;2172765;82;20974;-80
2021/08/07 05:03:28;;;;;;;10.05;4.55;;;;;;;11.96;85.10;98112.04;2165620;82;21036;-79
2021/08/07 05:06:29;;;;;;;7.92;4.78;;;;;;;12.23;84.65;98109.73;2172730;82;20932;-80
2021/08/07 05:09:29;;;;;;;8.83;4.35;;;;;;;12.42;84.66;98113.97;2172689;81;21004;-79
2021/08/07 05:12:30;;;;;;;8.38;5.00;;;;;;;12.62;84.28;98123.84;2172802;82;20941;-78
2021/08/07 05:15:30;;;;;;;14.78;5.97;;;;;;;12.92;84.62;98121.41;2172815;82;21316;-80
2021/08/07 05:18:31;;;;;;;18.67;7.45;;;;;;;13.26;84.67;98123.77;2172670;82;20997;-76
2021/08/07 05:21:31;;;;;;;14.07;8.85;;;;;;;13.52;84.52;98126.97;2172822;81;21040;-80
2021/08/07 05:24:32;;;;;;;23.50;9.85;;;;;;;13.85;83.91;98130.95;2184892;81;21043;-80
2021/08/07 05:27:32;;;;;;;16.93;9.30;;;;;;;14.21;83.56;98127.00;2189275;81;20996;-81
2021/08/07 05:30:33;;;;;;;12.88;9.20;;;;;;;14.55;82.71;98131.78;2189479;81;21348;-80
2021/08/07 05:33:33;;;;;;;12.85;9.63;;;;;;;14.91;82.25;98136.93;2189749;81;20995;-80
2021/08/07 05:36:34;;;;;;;13.45;9.03;;;;;;;15.24;81.25;98129.77;2189585;81;21015;-80
2021/08/07 05:39:37;;;;;;;15.00;9.43;;;;;;;15.57;80.95;98129.61;2189492;81;20968;-80
2021/08/07 05:42:37;;;;;;;12.78;8.80;;;;;;;15.95;80.56;98131.09;2189502;81;20994;-81
2021/08/07 05:45:41;;;;;;;12.82;8.75;;;;;;;16.56;78.99;98131.48;2189642;81;21007;-80
2021/08/07 05:48:42;;;;;;;16.55;8.25;;;;;;;16.56;78.99;98131.48;2189458;81;21358;-80
2021/08/07 05:51:45;;;;;;;15.03;7.47;;;;;;;16.80;78.51;98127.89;2189319;81;20968;-79
2021/08/07 05:54:46;;;;;;;9.70;7.65;;;;;;;17.07;77.98;98131.61;2189475;81;21019;-80
2021/08/07 05:57:46;;;;;;;10.00;7.97;;;;;;;17.34;77.49;98133.98;2189306;81;21016;-79
2021/08/07 06:00:47;;;;;;;10.25;7.45;;;;;;;17.62;77.30;98135.00;2188736;81;21019;-80
2021/08/07 06:03:47;;;;;;;10.50;6.87;;;;;;;17.85;75.37;98138.80;2188332;81;20948;-80
2021/08/07 06:06:48;;;;;;;9.53;7.08;;;;;;;17.97;75.77;98139.31;2188560;81;20951;-80
2021/08/07 06:09:48;;;;;;;11.40;7.00;;;;;;;18.07;75.59;98142.55;2188495;81;21510;-81
2021/08/07 06:12:49;;;;;;;9.15;6.80;;;;;;;18.30;74.81;98148.05;2188621;81;21007;-81
2021/08/07 06:15:49;;;;;;;11.12;7.50;;;;;;;18.52;74.48;98143.42;2189192;81;21031;-81
2021/08/07 06:18:49;;;;;;;11.90;6.90;;;;;;;18.85;73.46;98133.59;2189797;81;21337;-81
2021/08/07 06:21:50;;;;;;;11.45;7.35;;;;;;;19.07;72.18;98146.08;2189440;81;21008;-81
2021/08/07 06:24:50;;;;;;;7.62;6.78;;;;;;;19.30;73.11;98142.66;2188860;81;21015;-78
2021/08/07 06:27:54;;;;;;;7.12;6.40;;;;;;;19.40;71.00;98152.47;2189131;81;20955;-79
2021/08/07 06:30:55;;;;;;;9.03;6.42;;;;;;;19.66;70.82;98155.10;2188821;81;20991;-79
2021/08/07 06:33:55;;;;;;;13.58;6.55;;;;;;;19.75;70.60;98157.02;2189050;81;21379;-79
2021/08/07 06:36:56;;;;;;;9.08;6.08;;;;;;;20.04;71.07;98155.53;2189043;81;21344;-80
2021/08/07 06:39:56;;;;;;;10.38;6.35;;;;;;;20.16;68.74;98159.05;2189238;81;20987;-80
2021/08/07 06:42:57;;;;;;;7.47;6.10;;;;;;;20.23;69.58;98160.54;2189001;81;21036;-79
2021/08/07 06:45:57;;;;;;;9.03;5.97;;;;;;;20.26;67.45;98156.91;2188878;81;20941;-80
2021/08/07 06:48:58;;;;;;;9.30;5.65;;;;;;;20.24;67.45;98147.69;2189343;81;21324;-79
2021/08/07 06:52:01;;;;;;;6.67;5.75;;;;;;;20.29;68.53;98156.80;2189275;81;20933;-80
2021/08/07 06:55:01;;;;;;;7.58;6.08;;;;;;;20.45;67.24;98158.42;2189427;81;21438;-80
2021/08/07 06:58:04;;;;;;;7.85;5.40;;;;;;;20.59;68.40;98155.64;2189373;81;20944;-79
2021/08/07 07:01:05;;;;;;;5.67;5.13;;;;;;;20.55;66.54;98165.09;2189268;81;21416;-80
2021/08/07 07:04:05;;;;;;;10.78;5.28;;;;;;;20.59;66.81;98160.08;2189276;81;20948;-78
2021/08/07 07:07:06;;;;;;;11.63;5.30;;;;;;;20.67;67.55;98159.31;2189199;81;20916;-80
2021/08/07 07:10:09;;;;;;;5.72;5.22;;;;;;;20.96;66.20;98169.66;2189260;81;20928;-81
2021/08/07 07:13:11;;;;;;;5.95;5.25;;;;;;;21.17;65.54;98173.21;2189025;81;21078;-81
2021/08/07 07:16:11;;;;;;;5.47;4.75;;;;;;;21.25;66.82;98178.23;2188857;81;20959;-80
2021/08/07 07:19:11;;;;;;;6.20;5.60;;;;;;;21.39;64.71;98178.52;2188334;81;20956;-81
2021/08/07 07:22:12;;;;;;;6.12;5.17;;;;;;;21.38;65.60;98178.13;2188935;81;21427;-80
2021/08/07 07:25:12;;;;;;;8.75;4.80;;;;;;;21.41;64.72;98177.13;2188663;81;21042;-80
2021/08/07 07:28:13;;;;;;;5.58;4.92;;;;;;;21.36;64.64;98177.33;2189796;81;20948;-80
2021/08/07 07:31:13;;;;;;;5.83;4.40;;;;;;;21.67;64.79;98172.89;2188769;81;21003;-80
2021/08/07 07:34:14;;;;;;;9.00;5.45;;;;;;;21.61;63.83;98170.50;2188927;81;20959;-80
2021/08/07 07:37:14;;;;;;;7.60;4.67;;;;;;;21.71;63.59;98171.00;2189381;81;20976;-79
2021/08/07 07:40:15;;;;;;;4.72;4.28;;;;;;;21.68;62.01;98169.80;2189499;81;20992;-80
2021/08/07 07:43:15;;;;;;;5.92;4.62;;;;;;;21.78;62.85;98164.48;2189587;81;21320;-81
2021/08/07 07:46:16;;;;;;;5.87;4.60;;;;;;;21.91;63.09;98165.67;2189573;81;21028;-79
2021/08/07 07:49:19;;;;;;;4.60;4.20;;;;;;;22.10;62.53;98172.38;2189827;81;21005;-81
2021/08/07 07:52:20;;;;;;;5.22;4.00;;;;;;;22.27;62.29;98168.95;2189401;81;21380;-79
2021/08/07 07:55:22;;;;;;;4.97;4.08;;;;;;;22.40;60.99;98171.44;2171288;81;20998;-80
2021/08/07 07:58:23;;;;;;;4.75;3.85;;;;;;;22.47;60.47;98179.53;2189740;81;21371;-80
2021/08/07 08:01:23;;;;;;;5.87;3.77;;;;;;;22.21;61.13;98174.09;2189633;81;20964;-81
2021/08/07 08:04:24;;;;;;;4.42;4.00;;;;;;;22.21;60.78;98176.28;2189810;81;20959;-80
2021/08/07 08:07:24;;;;;;;6.17;4.05;;;;;;;21.96;60.08;98188.91;2189875;81;20959;-80
2021/08/07 08:10:25;;;;;;;5.28;3.60;;;;;;;21.92;59.86;98189.98;2189803;81;20971;-80
2021/08/07 08:13:25;;;;;;;4.03;3.72;;;;;;;21.89;61.26;98183.47;2189752;81;20979;-80
2021/08/07 08:16:26;;;;;;;6.10;4.17;;;;;;;21.94;60.02;98196.09;2189806;81;21313;-80
2021/08/07 08:19:26;;;;;;;8.53;4.17;;;;;;;22.08;60.04;98197.70;2189983;81;20952;-81
2021/08/07 08:22:27;;;;;;;5.20;4.08;;;;;;;22.25;60.11;98181.85;2189892;81;21020;-82
2021/08/07 08:25:29;;;;;;;5.08;3.50;;;;;;;22.56;60.42;98187.98;2175580;81;21027;-80
2021/08/07 08:28:29;;;;;;;3.30;3.00;;;;;;;23.12;59.78;98194.20;2172715;82;21380;-79
2021/08/07 08:31:33;;;;;;;3.98;3.65;;;;;;;23.22;57.22;98196.80;2172920;82;20929;-79
2021/08/07 08:34:33;;;;;;;3.47;3.17;;;;;;;23.29;58.06;98200.03;2172852;82;20976;-79
2021/08/07 08:37:36;;;;;;;5.03;3.58;;;;;;;23.65;58.48;98196.05;2172823;82;21033;-81
2021/08/07 08:40:37;;;;;;;3.22;2.98;;;;;;;23.88;57.36;98202.38;2172946;82;20965;-80
2021/08/07 08:43:38;;;;;;;4.62;3.20;;;;;;;24.20;56.58;98200.69;2172679;81;20981;-80
2021/08/07 08:46:39;;;;;;;2.75;2.55;;;;;;;24.48;55.29;98209.45;2172161;81;20996;-79
2021/08/07 08:49:39;;;;;;;2.60;2.40;;;;;;;24.80;55.13;98200.16;2171962;82;20972;-80
2021/08/07 08:52:40;;;;;;;2.62;2.42;;;;;;;25.12;54.72;98207.23;2172490;81;20929;-80
2021/08/07 08:55:40;;;;;;;4.15;2.85;;;;;;;25.01;54.16;98204.31;2173194;82;21017;-81
2021/08/07 08:58:43;;;;;;;4.33;2.47;;;;;;;24.62;53.41;98206.90;2173101;81;20965;-80
2021/08/07 09:01:44;;;;;;;3.05;2.60;;;;;;;24.05;54.44;98204.16;2173130;81;21351;-80
2021/08/07 09:04:45;;;;;;;3.83;2.65;;;;;;;24.10;53.44;98214.98;2172707;81;20972;-80
2021/08/07 09:07:47;;;;;;;3.10;2.75;;;;;;;24.08;54.17;98210.20;2172806;81;20991;-80
2021/08/07 09:10:47;;;;;;;2.65;2.37;;;;;;;24.47;54.62;98202.87;2172865;81;20960;-80
2021/08/07 09:13:48;;;;;;;4.08;2.75;;;;;;;24.41;53.83;98213.41;2172778;81;20941;-80
2021/08/07 09:16:48;;;;;;;5.42;2.55;;;;;;;24.29;53.69;98206.06;2172609;81;21281;-79
2021/08/07 09:19:48;;;;;;;2.77;2.55;;;;;;;24.05;52.77;98211.69;2173106;81;20984;-79
2021/08/07 09:22:49;;;;;;;4.60;2.47;;;;;;;23.75;53.88;98209.29;2171843;81;21039;-79
2021/08/07 09:25:49;;;;;;;2.58;2.10;;;;;;;24.18;52.66;98211.91;2170906;81;21004;-79
2021/08/07 09:28:50;;;;;;;2.75;1.85;;;;;;;24.39;52.23;98210.82;2171694;81;20929;-79
2021/08/07 09:31:50;;;;;;;5.28;2.15;;;;;;;24.58;52.46;98208.01;2172216;82;21277;-79
2021/08/07 09:34:51;;;;;;;5.40;2.10;;;;;;;24.98;52.09;98212.02;2172166;81;21004;-79
2021/08/07 09:37:51;;;;;;;3.67;2.30;;;;;;;25.53;51.74;98204.02;2172608;81;21019;-80
2021/08/07 09:40:54;;;;;;;2.70;1.90;;;;;;;26.07;50.93;98203.92;2172789;81;20949;-79
2021/08/07 09:43:55;;;;;;;3.33;2.47;;;;;;;25.88;48.12;98222.86;2173055;81;21285;-80
2021/08/07 09:46:55;;;;;;;3.20;2.17;;;;;;;26.15;51.16;98220.83;2172409;81;21441;-80
2021/08/07 09:49:56;;;;;;;2.87;2.37;;;;;;;26.37;48.81;98216.39;2172821;81;20964;-80
2021/08/07 09:52:59;;;;;;;3.12;1.70;;;;;;;26.16;48.39;98230.09;2172830;82;21325;-79
2021/08/07 09:55:59;;;;;;;2.62;2.35;;;;;;;25.73;46.55;98237.13;2172913;81;20996;-80
2021/08/07 09:59:00;;;;;;;3.77;2.35;;;;;;;25.22;49.93;98232.50;2172348;81;21072;-80
2021/08/07 10:02:00;;;;;;;2.77;2.58;;;;;;;24.89;49.15;98241.02;2172857;81;21004;-80
2021/08/07 10:05:01;;;;;;;5.15;2.50;;;;;;;24.69;50.64;98237.64;2172717;82;21013;-80
2021/08/07 10:08:02;;;;;;;3.72;2.40;;;;;;;24.74;50.43;98234.72;2172732;82;20949;-79
2021/08/07 10:11:03;;;;;;;2.80;2.45;;;;;;;24.52;48.62;98233.69;2172699;82;20961;-79
2021/08/07 10:14:03;;;;;;;5.03;2.60;;;;;;;24.22;50.30;98232.13;2172622;81;21323;-79
2021/08/07 10:17:04;;;;;;;3.08;2.00;;;;;;;24.18;50.43;98231.91;2172455;81;21482;-79
2021/08/07 10:20:04;;;;;;;2.60;2.40;;;;;;;24.53;48.86;98235.42;2172205;82;20995;-79
2021/08/07 10:23:08;;;;;;;3.72;2.70;;;;;;;24.42;49.93;98237.80;2173018;81;21297;-80
2021/08/07 10:26:10;;;;;;;;;;;;;;;24.37;49.89;98241.19;2189244;81;21469;-79
2021/08/07 10:29:10;;;;;;;2.45;2.22;;;;;;;24.32;51.19;98237.91;2189288;81;20104;-79
2021/08/07 10:32:11;;;;;;;4.70;1.98;;;;;;;24.75;51.33;98241.77;2188484;81;20924;-79
2021/08/07 10:35:11;;;;;;;4.58;2.20;;;;;;;25.09;49.07;98236.78;2188234;81;20987;-79
2021/08/07 10:38:12;;;;;;;2.12;1.90;;;;;;;25.45;48.49;98245.88;2188229;81;20976;-79
2021/08/07 10:41:12;;;;;;;2.87;2.30;;;;;;;25.51;48.88;98242.84;2188325;81;21360;-79
2021/08/07 10:44:13;;;;;;;6.33;2.50;;;;;;;25.40;48.59;98246.14;2188372;81;21327;-79
2021/08/07 10:47:13;;;;;;;3.30;2.25;;;;;;;25.06;48.88;98253.84;2188977;81;20999;-80
2021/08/07 10:50:14;;;;;;;2.60;2.40;;;;;;;25.10;48.25;98253.19;2189231;81;20952;-80
2021/08/07 10:53:14;;;;;;;4.03;2.10;;;;;;;25.05;49.23;98253.45;2188973;81;21004;-79
2021/08/07 10:56:14;;;;;;;2.27;2.02;;;;;;;25.28;47.75;98252.19;2188459;81;21023;-80
2021/08/07 10:59:16;;;;;;;2.75;2.10;;;;;;;25.48;48.37;98246.17;2189103;81;21387;-80
2021/08/07 11:02:16;;;;;;;2.10;1.95;;;;;;;25.73;47.73;98237.13;2188599;81;21068;-78
2021/08/07 11:05:17;;;;;;;3.50;2.37;;;;;;;26.04;46.94;98234.86;2188062;81;20925;-79
2021/08/07 11:08:18;;;;;;;2.50;1.80;;;;;;;26.15;47.35;98228.38;2188036;81;20982;-80
2021/08/07 11:11:21;;;;;;;5.35;2.05;;;;;;;26.12;46.86;98229.05;2188266;81;20952;-79
2021/08/07 11:14:21;;;;;;;;;;;;;;;25.75;46.58;98225.87;2190636;81;20976;-79
2021/08/07 11:17:22;;;;;;;2.20;2.08;;;;;;;25.96;46.70;98224.59;2188794;81;20104;-81
2021/08/07 11:20:22;;;;;;;2.70;1.82;;;;;;;26.12;47.96;98233.92;2188866;81;21356;-80
2021/08/07 11:23:23;;;;;;;2.02;1.80;;;;;;;26.30;46.27;98235.94;2189521;81;21008;-80
2021/08/07 11:26:27;;;;;;;2.92;1.90;;;;;;;26.57;43.55;98226.23;2188991;81;21316;-79
2021/08/07 11:29:27;;;;;;;2.02;1.82;;;;;;;26.78;44.92;98235.20;2188953;81;21003;-81
2021/08/07 11:32:28;;;;;;;1.60;1.50;;;;;;;26.71;45.22;98232.53;2189236;81;20960;-80
2021/08/07 11:35:29;;;;;;;5.28;1.77;;;;;;;26.77;44.54;98229.47;2189695;81;20982;-79
2021/08/07 11:38:29;;;;;;;5.12;1.65;;;;;;;27.02;44.11;98222.12;2189325;81;20972;-80
2021/08/07 11:41:30;;;;;;;2.40;1.87;;;;;;;26.70;44.03;98222.78;2189354;81;20983;-79
2021/08/07 11:44:30;;;;;;;2.00;1.90;;;;;;;26.26;43.98;98227.72;2189225;81;20948;-79
2021/08/07 11:47:30;;;;;;;2.42;1.85;;;;;;;26.34;45.30;98216.97;2189730;81;20948;-80
2021/08/07 11:50:31;;;;;;;1.90;1.80;;;;;;;26.65;45.54;98222.59;2189663;81;20972;-80
2021/08/07 11:53:32;;;;;;;3.02;1.82;;;;;;;26.96;44.65;98221.53;2189466;81;20905;-80
2021/08/07 11:56:34;;;;;;;1.80;1.70;;;;;;;27.12;44.37;98223.25;2188954;81;21023;-81
2021/08/07 11:59:36;;;;;;;1.77;1.67;;;;;;;27.18;42.12;98221.03;2144735;83;20904;-79
2021/08/07 12:02:37;;;;;;;1.92;1.82;;;;;;;27.37;42.94;98215.80;2144401;83;21031;-80
2021/08/07 12:05:37;;;;;;;1.70;1.60;;;;;;;27.50;42.13;98223.41;2144526;83;20947;-80
2021/08/07 12:08:38;;;;;;;3.02;1.80;;;;;;;27.52;43.39;98224.16;2144532;83;20960;-80
2021/08/07 12:11:38;;;;;;;1.35;1.25;;;;;;;27.64;42.42;98218.48;2144627;83;20975;-81
2021/08/07 12:14:39;;;;;;;2.87;1.52;;;;;;;27.85;42.25;98228.66;2144606;83;20948;-78
2021/08/07 12:17:39;;;;;;;1.95;1.50;;;;;;;27.97;41.46;98218.05;2144367;83;21387;-80
2021/08/07 12:20:40;;;;;;;4.28;1.77;;;;;;;27.91;41.20;98216.64;2144597;83;21407;-78
2021/08/07 12:23:40;;;;;;;5.53;1.85;;;;;;;28.14;39.54;98227.99;2144941;83;20987;-81
2021/08/07 12:26:41;;;;;;;2.50;2.10;;;;;;;28.33;41.88;98228.95;2130772;83;21071;-82
2021/08/07 12:29:42;;;;;;;3.33;1.75;;;;;;;28.22;40.68;98226.13;2128940;84;20992;-81
2021/08/07 12:32:42;;;;;;;1.90;1.80;;;;;;;27.98;39.71;98224.65;2128997;84;20952;-83
2021/08/07 12:35:43;;;;;;;1.77;1.67;;;;;;;27.89;40.28;98220.77;2129021;84;20979;-82
2021/08/07 12:38:43;;;;;;;3.85;2.02;;;;;;;27.89;39.97;98216.75;2129161;84;21406;-81
2021/08/07 12:41:44;;;;;;;1.60;1.50;;;;;;;27.81;39.91;98211.05;2128961;84;20967;-81
2021/08/07 12:44:44;;;;;;;1.75;1.65;;;;;;;27.49;39.38;98209.63;2129146;84;21000;-81
2021/08/07 12:47:45;;;;;;;244.97;22.45;;;;;;;27.40;40.31;98203.53;2129417;84;20928;-82
2021/08/07 12:50:45;;;;;;;153.50;13.53;;;;;;;27.24;39.83;98197.85;2173582;81;20973;-81
2021/08/07 12:53:46;;;;;;;246.57;20.50;;;;;;;27.08;41.01;98202.50;2173520;81;21352;-83
2021/08/07 12:56:46;;;;;;;142.50;15.32;;;;;;;27.27;41.40;98200.33;2173585;81;20992;-82
2021/08/07 12:59:47;;;;;;;21.52;4.40;;;;;;;27.37;40.61;98201.06;2173781;81;20992;-82
2021/08/07 13:02:47;;;;;;;6.37;2.58;;;;;;;27.45;40.88;98200.06;2173815;81;20984;-82
2021/08/07 13:05:48;;;;;;;16.77;3.85;;;;;;;27.48;41.41;98207.91;2173534;81;21321;-81
2021/08/07 13:08:48;;;;;;;11.63;3.10;;;;;;;27.49;40.85;98209.14;2173877;81;20980;-82
2021/08/07 13:11:49;;;;;;;7.05;2.77;;;;;;;27.41;40.60;98200.75;2173685;81;20969;-82
2021/08/07 13:14:50;;;;;;;5.17;2.75;;;;;;;27.07;41.15;98202.59;2173639;81;20969;-82
2021/08/07 13:17:50;;;;;;;3.05;2.45;;;;;;;26.93;41.96;98206.14;2173672;81;20925;-83
2021/08/07 13:20:52;;;;;;;3.80;2.15;;;;;;;26.62;41.33;98212.08;2173041;82;21451;-82
2021/08/07 13:23:53;;;;;;;2.40;2.20;;;;;;;26.81;41.73;98210.91;2173274;81;20992;-81
2021/08/07 13:26:54;;;;;;;2.95;2.35;;;;;;;26.91;42.20;98208.92;2187369;81;21058;-82
2021/08/07 13:29:54;;;;;;;5.22;2.30;;;;;;;27.18;41.60;98210.31;2190016;81;20979;-80
2021/08/07 13:32:55;;;;;;;3.25;2.75;;;;;;;27.07;40.95;98213.31;2189182;81;21014;-80
2021/08/07 13:35:55;;;;;;;1.80;1.70;;;;;;;27.11;41.04;98200.95;2189175;81;21364;-82
2021/08/07 13:38:56;;;;;;;2.90;1.75;;;;;;;27.41;39.37;98195.88;2188981;81;21012;-83
2021/08/07 13:41:57;;;;;;;2.20;2.00;;;;;;;27.48;38.44;98203.41;2189018;81;20956;-82
2021/08/07 13:44:57;;;;;;;2.33;2.12;;;;;;;27.49;38.23;98193.54;2189207;81;20952;-82
2021/08/07 13:47:58;;;;;;;2.33;2.12;;;;;;;27.22;38.28;98190.39;2189406;81;20963;-82
2021/08/07 13:50:58;;;;;;;2.50;2.00;;;;;;;27.41;38.99;98185.16;2189769;81;21344;-81
2021/08/07 13:53:59;;;;;;;2.95;2.20;;;;;;;27.53;38.79;98183.84;2190213;81;20995;-82
2021/08/07 13:57:01;;;;;;;2.10;1.90;;;;;;;27.55;36.86;98192.64;2190334;81;21035;-80
2021/08/07 14:00:01;;;;;;;2.30;2.17;;;;;;;27.52;38.33;98190.17;2145305;83;21015;-81
2021/08/07 14:03:02;;;;;;;3.75;2.30;;;;;;;27.59;39.43;98191.48;2145353;83;21018;-82
2021/08/07 14:06:03;;;;;;;2.10;2.00;;;;;;;27.65;37.63;98192.05;2145457;83;21011;-82
2021/08/07 14:09:04;;;;;;;2.58;2.35;;;;;;;27.61;36.77;98195.42;2145270;83;21415;-80
2021/08/07 14:12:04;;;;;;;2.22;2.10;;;;;;;27.48;38.60;98195.84;2145192;83;20943;-80
2021/08/07 14:15:05;;;;;;;2.30;2.20;;;;;;;27.54;38.73;98192.75;2145454;83;21361;-81